createdAt,value
2023-03-12T00:00:32.402Z,992.920127948
2023-03-12T00:01:32.401Z,992.8185365840001
2023-03-12T00:02:32.704Z,992.920127948
2023-03-12T00:03:32.408Z,992.8185365840001
2023-03-12T00:04:32.509Z,992.8185365840001
2023-03-12T00:05:32.414Z,992.8185365840001
2023-03-12T00:06:32.424Z,993.0217193120001
2023-03-12T00:07:32.387Z,992.920127948
2023-03-12T00:08:37.600Z,993.0217193120001
2023-03-12T00:09:41.673Z,992.920127948
2023-03-12T00:10:45.635Z,992.7169452200001
2023-03-12T00:11:49.596Z,992.920127948
2023-03-12T00:12:53.686Z,992.8185365840001
2023-03-12T00:13:57.608Z,992.8185365840001
2023-03-12T00:15:01.692Z,992.7169452200001
2023-03-12T00:16:05.598Z,992.920127948
2023-03-12T00:17:09.670Z,992.920127948
2023-03-12T00:18:13.607Z,993.1233106760001
2023-03-12T00:19:17.774Z,992.920127948
2023-03-12T00:20:21.579Z,993.0217193120001
2023-03-12T00:21:25.577Z,992.920127948
2023-03-12T00:22:30.119Z,992.920127948
2023-03-12T00:23:31.479Z,992.920127948
2023-03-12T00:24:31.380Z,992.920127948
2023-03-12T00:25:31.387Z,992.920127948
2023-03-12T00:26:31.393Z,992.8185365840001
2023-03-12T00:27:31.408Z,992.8185365840001
2023-03-12T00:28:31.379Z,992.8185365840001
2023-03-12T00:29:31.419Z,992.8185365840001
2023-03-12T00:30:31.390Z,992.7169452200001
2023-03-12T00:31:31.431Z,992.920127948
2023-03-12T00:32:31.390Z,992.615353856
2023-03-12T00:33:31.364Z,992.7169452200001
2023-03-12T00:34:31.409Z,992.7169452200001
2023-03-12T00:35:31.447Z,992.8185365840001
2023-03-12T00:36:31.396Z,992.7169452200001
2023-03-12T00:37:31.387Z,992.8185365840001
2023-03-12T00:38:31.404Z,992.920127948
2023-03-12T00:39:31.343Z,992.8185365840001
2023-03-12T00:40:31.359Z,992.920127948
2023-03-12T00:41:31.380Z,992.920127948
2023-03-12T00:42:31.382Z,992.615353856
2023-03-12T00:43:31.397Z,992.7169452200001
2023-03-12T00:44:31.359Z,992.920127948
2023-03-12T00:45:31.404Z,992.920127948
2023-03-12T00:46:31.439Z,992.7169452200001
2023-03-12T00:47:31.470Z,992.7169452200001
2023-03-12T00:48:31.366Z,992.920127948
2023-03-12T00:49:31.402Z,992.8185365840001
2023-03-12T00:50:31.370Z,993.0217193120001
2023-03-12T00:51:31.452Z,992.8185365840001
2023-03-12T00:52:32.102Z,993.0217193120001
2023-03-12T00:53:31.385Z,992.7169452200001
2023-03-12T00:54:31.379Z,992.8185365840001
2023-03-12T00:55:31.400Z,993.0217193120001
2023-03-12T00:56:31.383Z,992.8185365840001
2023-03-12T00:57:31.402Z,992.7169452200001
2023-03-12T00:58:31.373Z,992.8185365840001
2023-03-12T00:59:31.394Z,993.0217193120001
2023-03-12T01:00:31.428Z,992.920127948
2023-03-12T01:01:31.408Z,993.0217193120001
2023-03-12T01:02:31.833Z,993.0217193120001
2023-03-12T01:03:31.401Z,992.8185365840001
2023-03-12T01:04:31.384Z,993.0217193120001
2023-03-12T01:05:32.513Z,993.0217193120001
2023-03-12T01:06:31.382Z,993.0217193120001
2023-03-12T01:07:31.422Z,992.920127948
2023-03-12T01:08:31.360Z,992.920127948
2023-03-12T01:09:31.401Z,992.920127948
2023-03-12T01:10:31.367Z,993.0217193120001
2023-03-12T01:11:31.399Z,992.8185365840001
2023-03-12T01:12:31.687Z,992.8185365840001
2023-03-12T01:13:31.381Z,993.0217193120001
2023-03-12T01:14:31.374Z,992.920127948
2023-03-12T01:15:31.436Z,992.920127948
2023-03-12T01:16:31.425Z,992.920127948
2023-03-12T01:17:31.405Z,992.8185365840001
2023-03-12T01:18:31.359Z,992.8185365840001
2023-03-12T01:19:31.448Z,992.7169452200001
2023-03-12T01:20:31.378Z,993.0217193120001
2023-03-12T01:21:31.387Z,993.0217193120001
2023-03-12T01:22:31.774Z,992.7169452200001
2023-03-12T01:23:31.422Z,992.7169452200001
2023-03-12T01:24:31.375Z,992.8185365840001
2023-03-12T01:25:31.386Z,993.0217193120001
2023-03-12T01:26:31.398Z,992.920127948
2023-03-12T01:27:31.390Z,992.920127948
2023-03-12T01:28:31.403Z,992.920127948
2023-03-12T01:29:31.402Z,992.920127948
2023-03-12T01:30:31.364Z,992.920127948
2023-03-12T01:31:31.394Z,992.920127948
2023-03-12T01:32:31.840Z,992.920127948
2023-03-12T01:33:31.405Z,993.1233106760001
2023-03-12T01:34:31.361Z,993.0217193120001
2023-03-12T01:35:31.469Z,993.0217193120001
2023-03-12T01:36:31.435Z,992.920127948
2023-03-12T01:37:31.390Z,993.0217193120001
2023-03-12T01:38:31.359Z,993.1233106760001
2023-03-12T01:39:31.434Z,992.920127948
2023-03-12T01:40:31.493Z,992.8185365840001
2023-03-12T01:41:31.527Z,992.920127948
2023-03-12T01:42:31.623Z,993.1233106760001
2023-03-12T01:43:31.494Z,993.0217193120001
2023-03-12T01:44:31.512Z,992.920127948
2023-03-12T01:45:31.599Z,993.1233106760001
2023-03-12T01:46:31.489Z,993.0217193120001
2023-03-12T01:47:31.472Z,993.0217193120001
2023-03-12T01:48:31.484Z,993.0217193120001
2023-03-12T01:49:31.631Z,993.0217193120001
2023-03-12T01:50:31.533Z,992.920127948
2023-03-12T01:51:31.489Z,992.920127948
2023-03-12T01:52:32.005Z,992.920127948
2023-03-12T01:53:31.530Z,993.0217193120001
2023-03-12T01:54:31.474Z,992.920127948
2023-03-12T01:55:31.510Z,993.1233106760001
2023-03-12T01:56:31.540Z,993.0217193120001
2023-03-12T01:57:31.414Z,993.0217193120001
2023-03-12T01:58:31.348Z,992.920127948
2023-03-12T01:59:31.433Z,993.0217193120001
2023-03-12T02:00:31.416Z,992.920127948
2023-03-12T02:01:31.503Z,993.1233106760001
2023-03-12T02:02:31.765Z,993.1233106760001
2023-03-12T02:03:31.370Z,992.920127948
2023-03-12T02:04:31.408Z,992.8185365840001
2023-03-12T02:05:31.406Z,993.1233106760001
2023-03-12T02:06:31.366Z,993.1233106760001
2023-03-12T02:07:31.363Z,993.0217193120001
2023-03-12T02:08:31.377Z,992.920127948
2023-03-12T02:09:31.406Z,993.1233106760001
2023-03-12T02:10:31.371Z,993.0217193120001
2023-03-12T02:11:31.369Z,993.1233106760001
2023-03-12T02:12:31.723Z,993.1233106760001
2023-03-12T02:13:31.393Z,993.0217193120001
2023-03-12T02:14:31.357Z,993.0217193120001
2023-03-12T02:15:31.348Z,993.1233106760001
2023-03-12T02:16:31.494Z,993.0217193120001
2023-03-12T02:17:31.388Z,993.0217193120001
2023-03-12T02:18:31.413Z,993.2249020399998
2023-03-12T02:19:31.430Z,993.0217193120001
2023-03-12T02:20:31.399Z,993.0217193120001
2023-03-12T02:21:31.392Z,993.326493404
2023-03-12T02:22:31.349Z,993.1233106760001
2023-03-12T02:23:31.416Z,993.0217193120001
2023-03-12T02:24:31.395Z,993.0217193120001
2023-03-12T02:25:31.386Z,993.1233106760001
2023-03-12T02:26:31.413Z,993.326493404
2023-03-12T02:27:31.347Z,993.1233106760001
2023-03-12T02:28:31.369Z,993.326493404
2023-03-12T02:29:31.458Z,993.1233106760001
2023-03-12T02:30:31.427Z,993.326493404
2023-03-12T02:31:31.388Z,993.2249020399998
2023-03-12T02:32:31.979Z,993.428084768
2023-03-12T02:33:31.374Z,993.326493404
2023-03-12T02:34:31.354Z,993.326493404
2023-03-12T02:35:31.432Z,993.326493404
2023-03-12T02:36:31.385Z,993.428084768
2023-03-12T02:37:31.402Z,993.326493404
2023-03-12T02:38:31.352Z,993.5296761319998
2023-03-12T02:39:31.389Z,993.326493404
2023-03-12T02:40:31.386Z,993.2249020399998
2023-03-12T02:41:31.381Z,993.326493404
2023-03-12T02:42:31.795Z,993.428084768
2023-03-12T02:43:31.386Z,993.1233106760001
2023-03-12T02:44:31.360Z,993.326493404
2023-03-12T02:45:31.385Z,993.428084768
2023-03-12T02:46:31.368Z,993.5296761319998
2023-03-12T02:47:31.510Z,993.631267496
2023-03-12T02:48:31.351Z,993.326493404
2023-03-12T02:49:31.371Z,993.428084768
2023-03-12T02:50:31.368Z,993.2249020399998
2023-03-12T02:51:31.408Z,993.428084768
2023-03-12T02:52:31.776Z,993.428084768
2023-03-12T02:53:31.378Z,993.5296761319998
2023-03-12T02:54:31.459Z,993.631267496
2023-03-12T02:55:31.388Z,993.428084768
2023-03-12T02:56:31.361Z,993.326493404
2023-03-12T02:57:31.446Z,993.428084768
2023-03-12T02:58:31.348Z,993.73285886
2023-03-12T02:59:31.417Z,993.428084768
2023-03-12T03:00:31.359Z,993.5296761319998
2023-03-12T03:01:31.401Z,993.428084768
2023-03-12T03:02:31.677Z,993.326493404
2023-03-12T03:03:31.380Z,993.5296761319998
2023-03-12T03:04:31.377Z,993.631267496
2023-03-12T03:05:31.385Z,993.631267496
2023-03-12T03:06:31.390Z,993.631267496
2023-03-12T03:07:31.420Z,993.428084768
2023-03-12T03:08:31.400Z,993.5296761319998
2023-03-12T03:09:31.374Z,993.5296761319998
2023-03-12T03:10:31.480Z,993.428084768
2023-03-12T03:11:31.372Z,993.936041588
2023-03-12T03:12:32.230Z,993.428084768
2023-03-12T03:13:31.489Z,993.631267496
2023-03-12T03:14:31.370Z,993.631267496
2023-03-12T03:15:31.463Z,993.631267496
2023-03-12T03:16:31.432Z,993.8344502239999
2023-03-12T03:17:31.466Z,993.8344502239999
2023-03-12T03:18:31.399Z,993.73285886
2023-03-12T03:19:31.390Z,993.428084768
2023-03-12T03:20:31.461Z,993.8344502239999
2023-03-12T03:21:31.435Z,993.5296761319998
2023-03-12T03:22:31.574Z,993.631267496
2023-03-12T03:23:31.390Z,993.631267496
2023-03-12T03:24:31.469Z,993.631267496
2023-03-12T03:25:31.523Z,993.73285886
2023-03-12T03:26:31.392Z,993.8344502239999
2023-03-12T03:27:31.380Z,993.936041588
2023-03-12T03:28:31.350Z,993.8344502239999
2023-03-12T03:29:31.428Z,993.936041588
2023-03-12T03:30:31.499Z,993.631267496
2023-03-12T03:31:31.636Z,993.73285886
2023-03-12T03:32:31.428Z,994.037632952
2023-03-12T03:33:31.388Z,993.936041588
2023-03-12T03:34:31.359Z,994.037632952
2023-03-12T03:35:31.552Z,993.936041588
2023-03-12T03:36:31.367Z,993.8344502239999
2023-03-12T03:37:31.471Z,994.037632952
2023-03-12T03:38:31.434Z,993.936041588
2023-03-12T03:39:31.436Z,994.037632952
2023-03-12T03:40:31.459Z,994.037632952
2023-03-12T03:41:31.473Z,994.037632952
2023-03-12T03:42:31.517Z,993.8344502239999
2023-03-12T03:43:31.458Z,993.936041588
2023-03-12T03:44:31.515Z,993.936041588
2023-03-12T03:45:31.366Z,994.1392243160001
2023-03-12T03:46:31.559Z,994.1392243160001
2023-03-12T03:47:31.446Z,994.2069518920001
2023-03-12T03:48:31.434Z,993.73285886
2023-03-12T03:49:31.515Z,994.037632952
2023-03-12T03:50:31.417Z,994.1392243160001
2023-03-12T03:51:31.383Z,994.037632952
2023-03-12T03:52:31.369Z,994.1392243160001
2023-03-12T03:53:31.374Z,994.1392243160001
2023-03-12T03:54:31.364Z,993.936041588
2023-03-12T03:55:31.444Z,994.037632952
2023-03-12T03:56:31.391Z,994.2069518920001
2023-03-12T03:57:31.360Z,994.1392243160001
2023-03-12T03:58:31.359Z,994.1392243160001
2023-03-12T03:59:31.461Z,994.308543256
2023-03-12T04:00:31.383Z,994.2069518920001
2023-03-12T04:01:31.401Z,994.308543256
2023-03-12T04:02:31.337Z,994.4101346199999
2023-03-12T04:03:31.439Z,994.2069518920001
2023-03-12T04:04:31.400Z,994.308543256
2023-03-12T04:05:31.464Z,994.308543256
2023-03-12T04:06:31.353Z,994.4101346199999
2023-03-12T04:07:31.450Z,994.4101346199999
2023-03-12T04:08:31.396Z,994.308543256
2023-03-12T04:09:31.331Z,994.4101346199999
2023-03-12T04:10:31.354Z,994.4101346199999
2023-03-12T04:11:31.412Z,994.308543256
2023-03-12T04:12:31.925Z,994.4101346199999
2023-03-12T04:13:31.341Z,994.308543256
2023-03-12T04:14:31.509Z,994.4101346199999
2023-03-12T04:15:31.375Z,994.4101346199999
2023-03-12T04:16:31.364Z,994.308543256
2023-03-12T04:17:31.359Z,994.4101346199999
2023-03-12T04:18:31.349Z,994.4101346199999
2023-03-12T04:19:31.420Z,994.308543256
2023-03-12T04:20:31.386Z,994.4101346199999
2023-03-12T04:21:31.412Z,994.5117259839999
2023-03-12T04:22:31.357Z,994.308543256
2023-03-12T04:23:31.391Z,994.308543256
2023-03-12T04:24:31.370Z,994.2069518920001
2023-03-12T04:25:31.334Z,994.613317348
2023-03-12T04:26:31.334Z,994.5117259839999
2023-03-12T04:27:31.392Z,994.613317348
2023-03-12T04:28:31.374Z,994.4101346199999
2023-03-12T04:29:31.361Z,994.613317348
2023-03-12T04:30:31.352Z,994.613317348
2023-03-12T04:31:31.473Z,994.5117259839999
2023-03-12T04:32:32.055Z,994.613317348
2023-03-12T04:33:31.368Z,994.613317348
2023-03-12T04:34:31.340Z,994.7149087119999
2023-03-12T04:35:31.441Z,994.7149087119999
2023-03-12T04:36:31.392Z,994.613317348
2023-03-12T04:37:31.350Z,994.613317348
2023-03-12T04:38:31.346Z,994.613317348
2023-03-12T04:39:31.352Z,994.7149087119999
2023-03-12T04:40:31.362Z,994.8165000759999
2023-03-12T04:41:31.347Z,994.7149087119999
2023-03-12T04:42:31.995Z,994.7149087119999
2023-03-12T04:43:31.418Z,994.613317348
2023-03-12T04:44:31.370Z,994.4101346199999
2023-03-12T04:45:31.496Z,994.7149087119999
2023-03-12T04:46:31.410Z,994.613317348
2023-03-12T04:47:31.400Z,994.7149087119999
2023-03-12T04:48:31.382Z,994.7149087119999
2023-03-12T04:49:31.397Z,994.7149087119999
2023-03-12T04:50:31.368Z,994.7149087119999
2023-03-12T04:51:31.404Z,994.8165000759999
2023-03-12T04:52:32.059Z,995.0196828039999
2023-03-12T04:53:31.437Z,994.8165000759999
2023-03-12T04:54:31.359Z,994.91809144
2023-03-12T04:55:31.390Z,994.7149087119999
2023-03-12T04:56:31.380Z,994.7149087119999
2023-03-12T04:57:31.369Z,994.613317348
2023-03-12T04:58:31.392Z,994.7149087119999
2023-03-12T04:59:31.382Z,994.7149087119999
2023-03-12T05:00:31.375Z,994.91809144
2023-03-12T05:01:31.348Z,994.7149087119999
2023-03-12T05:02:31.418Z,994.8165000759999
2023-03-12T05:03:31.450Z,994.7149087119999
2023-03-12T05:04:33.534Z,995.0196828039999
2023-03-12T05:05:31.368Z,994.91809144
2023-03-12T05:06:31.407Z,994.91809144
2023-03-12T05:07:31.408Z,994.7149087119999
2023-03-12T05:08:31.389Z,994.91809144
2023-03-12T05:09:31.390Z,994.7149087119999
2023-03-12T05:10:31.397Z,995.0196828039999
2023-03-12T05:11:31.388Z,994.8165000759999
2023-03-12T05:12:31.383Z,995.0196828039999
2023-03-12T05:13:31.386Z,995.222865532
2023-03-12T05:14:31.435Z,995.222865532
2023-03-12T05:15:31.372Z,995.1212741679999
2023-03-12T05:16:31.469Z,995.0196828039999
2023-03-12T05:17:31.384Z,995.222865532
2023-03-12T05:18:31.405Z,995.222865532
2023-03-12T05:19:31.385Z,995.1212741679999
2023-03-12T05:20:31.379Z,995.1212741679999
2023-03-12T05:21:31.338Z,995.3244568959999
2023-03-12T05:22:32.093Z,995.4260482599999
2023-03-12T05:23:31.382Z,995.1212741679999
2023-03-12T05:24:31.396Z,995.222865532
2023-03-12T05:25:31.406Z,995.1212741679999
2023-03-12T05:26:31.495Z,995.4260482599999
2023-03-12T05:27:32.001Z,995.1212741679999
2023-03-12T05:28:31.354Z,995.3244568959999
2023-03-12T05:29:31.383Z,995.3244568959999
2023-03-12T05:30:31.361Z,995.3244568959999
2023-03-12T05:31:31.479Z,995.1212741679999
2023-03-12T05:32:32.234Z,994.91809144
2023-03-12T05:33:31.361Z,995.3244568959999
2023-03-12T05:34:31.383Z,995.222865532
2023-03-12T05:35:31.476Z,995.222865532
2023-03-12T05:36:31.407Z,995.3244568959999
2023-03-12T05:37:31.388Z,995.1212741679999
2023-03-12T05:38:31.401Z,995.3244568959999
2023-03-12T05:39:31.386Z,995.3244568959999
2023-03-12T05:40:31.407Z,995.222865532
2023-03-12T05:41:31.394Z,995.222865532
2023-03-12T05:42:31.408Z,995.222865532
2023-03-12T05:43:31.382Z,995.222865532
2023-03-12T05:44:31.409Z,995.222865532
2023-03-12T05:45:31.403Z,995.222865532
2023-03-12T05:46:31.415Z,995.3244568959999
2023-03-12T05:47:31.384Z,995.222865532
2023-03-12T05:48:31.390Z,995.3244568959999
2023-03-12T05:49:31.344Z,995.3244568959999
2023-03-12T05:50:31.397Z,995.527639624
2023-03-12T05:51:31.371Z,995.222865532
2023-03-12T05:52:31.392Z,995.3244568959999
2023-03-12T05:53:31.415Z,995.3244568959999
2023-03-12T05:54:31.477Z,995.527639624
2023-03-12T05:55:31.349Z,995.527639624
2023-03-12T05:56:31.411Z,995.527639624
2023-03-12T05:57:31.348Z,995.222865532
2023-03-12T05:58:31.386Z,995.4260482599999
2023-03-12T05:59:31.415Z,995.527639624
2023-03-12T06:00:31.398Z,995.527639624
2023-03-12T06:01:31.446Z,995.4260482599999
2023-03-12T06:02:31.395Z,995.6292309879999
2023-03-12T06:03:31.405Z,995.3244568959999
2023-03-12T06:04:31.402Z,995.4260482599999
2023-03-12T06:05:31.354Z,995.4260482599999
2023-03-12T06:06:31.461Z,995.527639624
2023-03-12T06:07:31.404Z,995.527639624
2023-03-12T06:08:31.401Z,995.6292309879999
2023-03-12T06:09:31.345Z,995.527639624
2023-03-12T06:10:31.405Z,995.4260482599999
2023-03-12T06:11:31.400Z,995.7308223519999
2023-03-12T06:12:32.149Z,995.6292309879999
2023-03-12T06:13:31.359Z,995.7308223519999
2023-03-12T06:14:31.520Z,995.7308223519999
2023-03-12T06:15:31.414Z,995.832413716
2023-03-12T06:16:31.422Z,995.7308223519999
2023-03-12T06:17:31.348Z,995.6292309879999
2023-03-12T06:18:31.419Z,995.7308223519999
2023-03-12T06:19:31.340Z,995.93400508
2023-03-12T06:20:31.371Z,995.7308223519999
2023-03-12T06:21:31.415Z,995.7308223519999
2023-03-12T06:22:31.425Z,995.7308223519999
2023-03-12T06:23:31.452Z,995.7308223519999
2023-03-12T06:24:31.382Z,995.93400508
2023-03-12T06:25:31.356Z,995.7308223519999
2023-03-12T06:26:31.431Z,995.832413716
2023-03-12T06:27:31.349Z,995.93400508
2023-03-12T06:28:31.385Z,995.93400508
2023-03-12T06:29:31.356Z,995.93400508
2023-03-12T06:30:31.400Z,996.035596444
2023-03-12T06:31:31.427Z,995.832413716
2023-03-12T06:32:31.591Z,995.6292309879999
2023-03-12T06:33:31.340Z,996.035596444
2023-03-12T06:34:31.380Z,995.93400508
2023-03-12T06:35:31.400Z,995.93400508
2023-03-12T06:36:31.377Z,995.93400508
2023-03-12T06:37:31.354Z,995.832413716
2023-03-12T06:38:31.416Z,996.035596444
2023-03-12T06:39:31.379Z,996.137187808
2023-03-12T06:40:31.378Z,996.035596444
2023-03-12T06:41:31.409Z,996.238779172
2023-03-12T06:42:31.384Z,995.7308223519999
2023-03-12T06:43:31.314Z,996.137187808
2023-03-12T06:44:31.339Z,996.035596444
2023-03-12T06:45:31.380Z,996.035596444
2023-03-12T06:46:31.431Z,996.137187808
2023-03-12T06:47:31.379Z,995.93400508
2023-03-12T06:48:31.323Z,996.137187808
2023-03-12T06:49:31.389Z,996.137187808
2023-03-12T06:50:31.352Z,995.93400508
2023-03-12T06:51:31.350Z,995.93400508
2023-03-12T06:52:32.267Z,996.035596444
2023-03-12T06:53:31.404Z,996.306506748
2023-03-12T06:54:31.376Z,996.306506748
2023-03-12T06:55:31.353Z,996.238779172
2023-03-12T06:56:31.396Z,996.035596444
2023-03-12T06:57:31.376Z,996.238779172
2023-03-12T06:58:31.364Z,996.238779172
2023-03-12T06:59:31.371Z,996.035596444
2023-03-12T07:00:31.405Z,996.137187808
2023-03-12T07:01:31.446Z,996.238779172
2023-03-12T07:02:31.474Z,996.4080981120001
2023-03-12T07:03:31.397Z,996.4080981120001
2023-03-12T07:04:31.331Z,996.4080981120001
2023-03-12T07:05:31.402Z,996.306506748
2023-03-12T07:06:31.365Z,996.509689476
2023-03-12T07:07:31.369Z,996.61128084
2023-03-12T07:08:31.411Z,996.4080981120001
2023-03-12T07:09:31.383Z,996.4080981120001
2023-03-12T07:10:31.554Z,996.61128084
2023-03-12T07:11:31.348Z,996.4080981120001
2023-03-12T07:12:31.648Z,996.509689476
2023-03-12T07:13:31.370Z,996.509689476
2023-03-12T07:14:31.342Z,996.306506748
2023-03-12T07:15:31.396Z,996.509689476
2023-03-12T07:16:31.526Z,996.4080981120001
2023-03-12T07:17:31.372Z,996.4080981120001
2023-03-12T07:18:31.420Z,996.4080981120001
2023-03-12T07:19:31.358Z,996.509689476
2023-03-12T07:20:31.399Z,996.4080981120001
2023-03-12T07:21:31.369Z,996.509689476
2023-03-12T07:22:32.192Z,996.4080981120001
2023-03-12T07:23:31.367Z,996.61128084
2023-03-12T07:24:31.362Z,996.7128722040001
2023-03-12T07:25:31.394Z,996.916054932
2023-03-12T07:26:31.363Z,996.509689476
2023-03-12T07:27:31.354Z,996.61128084
2023-03-12T07:28:31.383Z,996.61128084
2023-03-12T07:29:31.435Z,996.61128084
2023-03-12T07:30:31.435Z,996.509689476
2023-03-12T07:31:31.443Z,996.814463568
2023-03-12T07:32:32.150Z,996.7128722040001
2023-03-12T07:33:31.582Z,996.814463568
2023-03-12T07:34:31.611Z,996.61128084
2023-03-12T07:35:31.568Z,996.7128722040001
2023-03-12T07:36:31.558Z,996.7128722040001
2023-03-12T07:37:31.458Z,996.61128084
2023-03-12T07:38:31.455Z,996.7128722040001
2023-03-12T07:39:31.403Z,996.814463568
2023-03-12T07:40:31.364Z,996.916054932
2023-03-12T07:41:31.375Z,996.916054932
2023-03-12T07:42:31.601Z,996.814463568
2023-03-12T07:43:31.356Z,996.7128722040001
2023-03-12T07:44:31.378Z,996.61128084
2023-03-12T07:45:31.487Z,996.916054932
2023-03-12T07:46:31.510Z,996.7128722040001
2023-03-12T07:47:31.675Z,996.7128722040001
2023-03-12T07:48:31.371Z,996.7128722040001
2023-03-12T07:49:31.378Z,996.7128722040001
2023-03-12T07:50:31.421Z,996.7128722040001
2023-03-12T07:51:31.361Z,996.61128084
2023-03-12T07:52:32.416Z,996.814463568
2023-03-12T07:53:31.327Z,997.0176462960001
2023-03-12T07:54:31.489Z,996.509689476
2023-03-12T07:55:31.447Z,996.7128722040001
2023-03-12T07:56:31.390Z,996.7128722040001
2023-03-12T07:57:31.452Z,997.0176462960001
2023-03-12T07:58:31.606Z,996.814463568
2023-03-12T07:59:31.362Z,996.916054932
2023-03-12T08:00:31.484Z,996.814463568
2023-03-12T08:01:31.521Z,996.814463568
2023-03-12T08:02:31.553Z,996.7128722040001
2023-03-12T08:03:31.558Z,997.0176462960001
2023-03-12T08:04:31.484Z,997.11923766
2023-03-12T08:05:31.647Z,996.916054932
2023-03-12T08:06:31.446Z,997.220829024
2023-03-12T08:07:31.491Z,996.916054932
2023-03-12T08:08:31.469Z,996.916054932
2023-03-12T08:09:31.328Z,996.814463568
2023-03-12T08:10:31.424Z,997.11923766
2023-03-12T08:11:31.346Z,997.0176462960001
2023-03-12T08:12:31.461Z,997.0176462960001
2023-03-12T08:13:31.515Z,996.814463568
2023-03-12T08:14:31.402Z,997.0176462960001
2023-03-12T08:15:31.325Z,996.61128084
2023-03-12T08:16:31.390Z,996.916054932
2023-03-12T08:17:31.365Z,997.220829024
2023-03-12T08:18:31.462Z,996.916054932
2023-03-12T08:19:31.448Z,997.0176462960001
2023-03-12T08:20:31.380Z,997.0176462960001
2023-03-12T08:21:31.344Z,997.11923766
2023-03-12T08:22:31.521Z,997.0176462960001
2023-03-12T08:23:31.320Z,997.11923766
2023-03-12T08:24:31.364Z,997.0176462960001
2023-03-12T08:25:31.492Z,997.0176462960001
2023-03-12T08:26:31.387Z,996.814463568
2023-03-12T08:27:31.666Z,997.11923766
2023-03-12T08:28:31.363Z,996.814463568
2023-03-12T08:29:31.321Z,997.220829024
2023-03-12T08:30:31.523Z,997.0176462960001
2023-03-12T08:31:31.366Z,997.0176462960001
2023-03-12T08:32:31.457Z,997.11923766
2023-03-12T08:33:31.341Z,997.11923766
2023-03-12T08:34:31.384Z,997.0176462960001
2023-03-12T08:35:31.414Z,997.220829024
2023-03-12T08:36:31.350Z,996.814463568
2023-03-12T08:37:31.346Z,997.11923766
2023-03-12T08:38:31.370Z,997.0176462960001
2023-03-12T08:39:31.331Z,997.3224203880001
2023-03-12T08:40:31.399Z,997.0176462960001
2023-03-12T08:41:31.389Z,996.916054932
2023-03-12T08:42:31.365Z,997.3224203880001
2023-03-12T08:43:31.344Z,997.0176462960001
2023-03-12T08:44:31.361Z,997.11923766
2023-03-12T08:45:31.524Z,997.11923766
2023-03-12T08:46:31.376Z,997.3224203880001
2023-03-12T08:47:31.340Z,997.11923766
2023-03-12T08:48:31.344Z,997.220829024
2023-03-12T08:49:31.358Z,997.3224203880001
2023-03-12T08:50:31.348Z,997.220829024
2023-03-12T08:51:31.343Z,997.220829024
2023-03-12T08:52:32.312Z,997.4240117520001
2023-03-12T08:53:31.349Z,997.3224203880001
2023-03-12T08:54:31.347Z,997.4240117520001
2023-03-12T08:55:31.351Z,997.11923766
2023-03-12T08:56:31.339Z,997.11923766
2023-03-12T08:57:31.381Z,997.3224203880001
2023-03-12T08:58:31.379Z,997.4240117520001
2023-03-12T08:59:31.920Z,997.220829024
2023-03-12T09:00:31.355Z,997.220829024
2023-03-12T09:01:31.399Z,997.4240117520001
2023-03-12T09:02:31.496Z,997.4240117520001
2023-03-12T09:03:31.406Z,997.4240117520001
2023-03-12T09:04:31.386Z,997.11923766
2023-03-12T09:05:31.341Z,997.11923766
2023-03-12T09:06:31.340Z,997.525603116
2023-03-12T09:07:31.385Z,997.6271944800001
2023-03-12T09:08:31.341Z,997.3224203880001
2023-03-12T09:09:31.373Z,997.525603116
2023-03-12T09:10:31.483Z,997.4240117520001
2023-03-12T09:11:31.337Z,997.525603116
2023-03-12T09:12:31.327Z,997.4240117520001
2023-03-12T09:13:50.771Z,997.3224203880001
2023-03-12T09:15:01.972Z,997.525603116
2023-03-12T09:15:31.389Z,997.525603116
2023-03-12T09:16:31.388Z,997.6271944800001
2023-03-12T09:17:31.420Z,997.6271944800001
2023-03-12T09:18:31.374Z,997.525603116
2023-03-12T09:19:31.348Z,997.6271944800001
2023-03-12T09:20:31.369Z,997.4240117520001
2023-03-12T09:21:31.338Z,997.6271944800001
2023-03-12T09:22:31.573Z,997.830377208
2023-03-12T09:23:31.344Z,997.6271944800001
2023-03-12T09:24:31.330Z,997.4240117520001
2023-03-12T09:25:31.378Z,997.6271944800001
2023-03-12T09:26:31.353Z,997.7287858440001
2023-03-12T09:27:31.313Z,997.6271944800001
2023-03-12T09:28:31.327Z,997.9319685720001
2023-03-12T09:29:31.412Z,997.4240117520001
2023-03-12T09:30:31.452Z,997.7287858440001
2023-03-12T09:31:31.362Z,997.9319685720001
2023-03-12T09:32:31.631Z,997.7287858440001
2023-03-12T09:33:31.365Z,997.830377208
2023-03-12T09:34:31.431Z,997.7287858440001
2023-03-12T09:35:31.526Z,997.7287858440001
2023-03-12T09:36:31.340Z,997.830377208
2023-03-12T09:37:31.353Z,997.830377208
2023-03-12T09:38:31.346Z,997.7287858440001
2023-03-12T09:39:31.297Z,997.7287858440001
2023-03-12T09:40:31.323Z,998.0335599360001
2023-03-12T09:41:31.334Z,997.7287858440001
2023-03-12T09:42:31.345Z,998.0335599360001
2023-03-12T09:43:31.299Z,997.830377208
2023-03-12T09:44:31.339Z,997.830377208
2023-03-12T09:45:31.342Z,997.830377208